Time;durP1;ratioP1;P1;durP2;ratioP2;P2;SDS_P1;SDS_P2;PMS_P1;PMS_P2;Temp;Humidity;BMP_temperature;BMP_pressure;BME280_temperature;BME280_humidity;BME280_pressure;Samples;Min_cycle;Max_cycle;Signal;HPM_P1;HPM_P2
2024/04/17 00:01:44;;;;;;;3.33;2.08;;;;;;;-144.57;100.00;62443.72;5561811;25;20047;-62
2024/04/17 00:04:10;;;;;;;5.45;2.75;;;;;;;-144.57;100.00;62443.72;5562089;25;20009;-62
2024/04/17 00:06:36;;;;;;;5.75;2.72;;;;;;;-144.57;100.00;62443.72;5560001;25;20489;-61
2024/04/17 00:09:01;;;;;;;5.00;2.67;;;;;;;-144.57;100.00;62443.72;5560288;25;20032;-60
2024/04/17 00:11:27;;;;;;;4.80;3.00;;;;;;;-144.57;100.00;62443.72;5559792;25;20335;-62
2024/04/17 00:13:53;;;;;;;4.80;2.50;;;;;;;-144.57;100.00;62443.72;5561981;25;19988;-62
2024/04/17 00:16:19;;;;;;;4.95;2.65;;;;;;;-144.57;100.00;62443.72;5559734;25;20462;-62
2024/04/17 00:18:44;;;;;;;5.65;2.67;;;;;;;-144.57;100.00;62443.72;5561418;25;20003;-61
2024/04/17 00:21:10;;;;;;;9.60;3.30;;;;;;;-144.57;100.00;62443.72;5528243;25;19993;-61
2024/04/17 00:23:36;;;;;;;6.75;2.90;;;;;;;-144.57;100.00;62443.72;5561457;25;20458;-61
2024/04/17 00:26:02;;;;;;;5.03;2.80;;;;;;;-144.57;100.00;62443.72;5560010;25;19992;-62
2024/04/17 00:28:27;;;;;;;5.50;2.63;;;;;;;-144.57;100.00;62443.72;5559923;25;19999;-61
2024/04/17 00:30:54;;;;;;;5.53;3.20;;;;;;;-144.57;100.00;62443.72;5561471;25;20351;-62
2024/04/17 00:33:20;;;;;;;6.03;2.55;;;;;;;-144.57;100.00;62443.72;5559506;25;20032;-62
2024/04/17 00:35:53;;;;;;;5.70;2.90;;;;;;;-144.57;100.00;62443.72;5559068;25;20019;-62
2024/04/17 00:38:19;;;;;;;5.95;3.13;;;;;;;-144.57;100.00;62443.72;5561166;25;20007;-62
2024/04/17 00:40:44;;;;;;;6.93;2.65;;;;;;;-144.57;100.00;62443.72;5559719;25;20001;-61
2024/04/17 00:43:10;;;;;;;8.48;2.78;;;;;;;-144.57;100.00;62443.72;5498193;25;20004;-63
2024/04/17 00:45:39;;;;;;;6.25;2.88;;;;;;;-144.57;100.00;62443.72;5559211;25;20076;-63
2024/04/17 00:48:07;;;;;;;9.48;3.20;;;;;;;-144.57;100.00;62443.72;5559577;25;20008;-62
2024/04/17 00:50:34;;;;;;;3.45;2.45;;;;;;;-144.57;100.00;62443.72;5522299;25;20474;-61
2024/04/17 00:53:00;;;;;;;4.53;2.90;;;;;;;-144.57;100.00;62443.72;5521935;26;20450;-62
2024/04/17 00:55:26;;;;;;;7.68;3.20;;;;;;;-144.57;100.00;62443.72;5523616;25;19997;-63
2024/04/17 00:57:52;;;;;;;8.00;3.25;;;;;;;-144.57;100.00;62443.72;5521958;26;20126;-62
2024/04/17 01:00:18;;;;;;;4.88;2.55;;;;;;;-144.57;100.00;62443.72;5523741;25;20001;-61
2024/04/17 01:02:44;;;;;;;5.63;2.85;;;;;;;-144.57;100.00;62443.72;5557316;25;20461;-63
2024/04/17 01:05:10;;;;;;;4.78;2.80;;;;;;;-144.57;100.00;62443.72;5560717;25;20007;-61
2024/04/17 01:07:36;;;;;;;4.80;3.15;;;;;;;-144.57;100.00;62443.72;5560837;25;20071;-63
2024/04/17 01:10:01;;;;;;;6.65;3.55;;;;;;;-144.57;100.00;62443.72;5560935;25;20432;-62
2024/04/17 01:12:29;;;;;;;6.93;2.97;;;;;;;-144.57;100.00;62443.72;5560745;25;19997;-61
2024/04/17 01:14:55;;;;;;;5.00;2.97;;;;;;;-144.57;100.00;62443.72;5559194;25;20059;-60
2024/04/17 01:17:21;;;;;;;5.53;2.85;;;;;;;-144.57;100.00;62443.72;5558943;25;20007;-60
2024/04/17 01:19:47;;;;;;;5.63;3.00;;;;;;;-144.57;100.00;62443.72;5560941;25;20072;-62
2024/04/17 01:22:13;;;;;;;5.93;3.00;;;;;;;-144.57;100.00;62443.72;5560387;25;20073;-63
2024/04/17 01:24:38;;;;;;;5.45;2.90;;;;;;;-144.57;100.00;62443.72;5558863;25;20350;-62
2024/04/17 01:27:04;;;;;;;5.85;3.20;;;;;;;-144.57;100.00;62443.72;5558583;25;20008;-62
2024/04/17 01:29:31;;;;;;;6.82;2.90;;;;;;;-144.57;100.00;62443.72;5558891;25;19997;-62
2024/04/17 01:31:57;;;;;;;7.00;3.08;;;;;;;-144.57;100.00;62443.72;5559262;25;20080;-61
2024/04/17 01:34:25;;;;;;;8.02;3.40;;;;;;;-144.57;100.00;62443.72;5563160;25;19997;-62
2024/04/17 01:36:52;;;;;;;7.75;3.53;;;;;;;-144.57;100.00;62443.72;5563644;25;20343;-61
2024/04/17 01:39:17;;;;;;;8.52;4.63;;;;;;;-144.57;100.00;62443.72;5562840;25;20004;-61
2024/04/17 01:41:43;;;;;;;4.47;3.13;;;;;;;-144.57;100.00;62443.72;5531326;25;20005;-63
2024/04/17 01:44:09;;;;;;;5.38;4.30;;;;;;;-144.57;100.00;62443.72;5562769;25;20001;-61
2024/04/17 01:46:35;;;;;;;5.85;3.15;;;;;;;-144.57;100.00;62443.72;5562170;25;20001;-61
2024/04/17 01:49:01;;;;;;;7.05;3.88;;;;;;;-144.57;100.00;62443.72;5562645;25;20004;-62
2024/04/17 01:51:26;;;;;;;8.07;3.00;;;;;;;-144.57;100.00;62443.72;5563693;25;20012;-61
2024/04/17 01:53:52;;;;;;;6.45;3.42;;;;;;;-144.57;100.00;62443.72;5564100;25;20462;-62
2024/04/17 01:56:18;;;;;;;4.18;3.00;;;;;;;-144.57;100.00;62443.72;5562016;25;20009;-62
2024/04/17 01:58:44;;;;;;;5.88;3.33;;;;;;;-144.57;100.00;62443.72;5562269;25;20338;-62
2024/04/17 02:01:10;;;;;;;6.28;3.65;;;;;;;-144.57;100.00;62443.72;5562184;25;20009;-61
2024/04/17 02:03:36;;;;;;;5.22;3.10;;;;;;;-144.57;100.00;62443.72;5561425;25;20499;-62
2024/04/17 02:06:02;;;;;;;6.45;3.60;;;;;;;-144.57;100.00;62443.72;5563676;25;20422;-61
2024/04/17 02:08:28;;;;;;;6.05;3.42;;;;;;;-144.57;100.00;62443.72;5563688;25;20008;-62
2024/04/17 02:10:53;;;;;;;9.05;3.42;;;;;;;-144.57;100.00;62443.72;5561926;25;19997;-62
2024/04/17 02:13:19;;;;;;;7.40;3.72;;;;;;;-144.57;100.00;62443.72;5563521;25;20481;-64
2024/04/17 02:15:45;;;;;;;4.55;3.20;;;;;;;-144.57;100.00;62443.72;5562034;25;20338;-61
2024/04/17 02:18:11;;;;;;;6.10;3.47;;;;;;;-144.57;100.00;62443.72;5563792;25;19993;-62
2024/04/17 02:20:38;;;;;;;6.18;3.22;;;;;;;-144.57;100.00;62443.72;5561622;25;20493;-62
2024/04/17 02:23:04;;;;;;;5.22;3.38;;;;;;;-144.57;100.00;62443.72;5563599;25;19992;-62
2024/04/17 02:25:30;;;;;;;7.60;3.80;;;;;;;-144.57;100.00;62443.72;5561375;25;20346;-62
2024/04/17 02:27:56;;;;;;;6.50;3.50;;;;;;;-144.57;100.00;62443.72;5563827;25;20007;-63
2024/04/17 02:30:21;;;;;;;6.95;3.53;;;;;;;-144.57;100.00;62443.72;5561591;25;20002;-62
2024/04/17 02:32:47;;;;;;;4.57;3.28;;;;;;;-144.57;100.00;62443.72;5563518;25;20454;-62
2024/04/17 02:35:13;;;;;;;9.60;4.05;;;;;;;-144.57;100.00;62443.72;5561571;25;20000;-62
2024/04/17 02:37:38;;;;;;;7.88;3.53;;;;;;;-144.57;100.00;62443.72;5563076;25;20454;-62
2024/04/17 02:40:05;;;;;;;5.50;2.83;;;;;;;-144.57;100.00;62443.72;5528637;25;20001;-61
2024/04/17 02:42:30;;;;;;;5.35;2.80;;;;;;;-144.57;100.00;62443.72;5543137;25;20574;-63
2024/04/17 02:44:56;;;;;;;5.97;3.53;;;;;;;-144.57;100.00;62443.72;5543195;25;20009;-62
2024/04/17 02:47:22;;;;;;;4.55;3.13;;;;;;;-144.57;100.00;62443.72;5556514;25;20076;-63
2024/04/17 02:49:48;;;;;;;5.30;3.35;;;;;;;-144.57;100.00;62443.72;5530561;25;19997;-62
2024/04/17 02:52:13;;;;;;;4.35;3.28;;;;;;;-144.57;100.00;62443.72;5561317;25;20016;-62
2024/04/17 02:54:39;;;;;;;5.32;3.25;;;;;;;-144.57;100.00;62443.72;5562854;25;20007;-62
2024/04/17 02:57:05;;;;;;;5.72;3.40;;;;;;;-144.57;100.00;62443.72;5562799;25;20349;-63
2024/04/17 02:59:31;;;;;;;6.93;3.55;;;;;;;-144.57;100.00;62443.72;5562851;25;19992;-62
2024/04/17 03:01:56;;;;;;;5.00;3.28;;;;;;;-144.57;100.00;62443.72;5562811;25;20008;-62
2024/04/17 03:04:22;;;;;;;8.18;3.30;;;;;;;-144.57;100.00;62443.72;5562869;25;19993;-63
2024/04/17 03:06:48;;;;;;;5.43;2.95;;;;;;;-144.57;100.00;62443.72;5529955;25;20353;-62
2024/04/17 03:09:13;;;;;;;7.97;3.78;;;;;;;-144.57;100.00;62443.72;5562858;25;20009;-62
2024/04/17 03:11:39;;;;;;;8.40;4.80;;;;;;;-144.57;100.00;62443.72;5560823;25;19996;-63
2024/04/17 03:14:05;;;;;;;5.65;3.10;;;;;;;-144.57;100.00;62443.72;5559395;25;20015;-62
2024/04/17 03:16:31;;;;;;;8.00;3.22;;;;;;;-144.57;100.00;62443.72;5559686;25;20044;-62
2024/04/17 03:18:56;;;;;;;6.60;3.50;;;;;;;-144.57;100.00;62443.72;5559370;25;19997;-63
2024/04/17 03:21:22;;;;;;;7.63;3.85;;;;;;;-144.57;100.00;62443.72;5558560;25;20000;-63
2024/04/17 03:23:48;;;;;;;5.82;3.97;;;;;;;-144.57;100.00;62443.72;5560874;25;20064;-64
2024/04/17 03:26:14;;;;;;;8.13;3.78;;;;;;;-144.57;100.00;62443.72;5560913;25;20350;-62
2024/04/17 03:28:39;;;;;;;9.90;3.65;;;;;;;-144.57;100.00;62443.72;5560527;25;20060;-62
2024/04/17 03:31:05;;;;;;;5.57;4.00;;;;;;;-144.57;100.00;62443.72;5561524;25;20485;-62
2024/04/17 03:33:31;;;;;;;7.05;3.50;;;;;;;-144.57;100.00;62443.72;5562471;25;19997;-61
2024/04/17 03:35:58;;;;;;;8.57;3.97;;;;;;;-144.57;100.00;62443.72;5560954;25;20000;-62
2024/04/17 03:38:25;;;;;;;7.47;3.40;;;;;;;-144.57;100.00;62443.72;5562702;25;20319;-63
2024/04/17 03:40:52;;;;;;;7.90;3.78;;;;;;;-144.57;100.00;62443.72;5562209;25;19997;-62
2024/04/17 03:43:18;;;;;;;8.50;3.65;;;;;;;-144.57;100.00;62443.72;5560101;25;20069;-62
2024/04/17 03:45:43;;;;;;;7.43;3.72;;;;;;;-144.57;100.00;62443.72;5560635;25;20000;-62
2024/04/17 03:48:09;;;;;;;7.38;3.88;;;;;;;-144.57;100.00;62443.72;5562348;25;20079;-62
2024/04/17 03:50:35;;;;;;;6.93;3.85;;;;;;;-144.57;100.00;62443.72;5561689;25;20005;-63
2024/04/17 03:53:00;;;;;;;7.55;3.90;;;;;;;-144.57;100.00;62443.72;5529272;25;20008;-63
2024/04/17 03:55:27;;;;;;;10.13;4.20;;;;;;;-144.57;100.00;62443.72;5497748;25;20469;-62
2024/04/17 03:57:53;;;;;;;7.57;4.03;;;;;;;-144.57;100.00;62443.72;5562333;25;19993;-64
2024/04/17 04:00:19;;;;;;;6.00;3.50;;;;;;;-144.57;100.00;62443.72;5559901;25;20350;-62
2024/04/17 04:02:44;;;;;;;6.93;3.80;;;;;;;-144.57;100.00;62443.72;5559999;25;19992;-64
2024/04/17 04:05:10;;;;;;;7.78;4.07;;;;;;;-144.57;100.00;62443.72;5561910;25;19989;-63
2024/04/17 04:07:38;;;;;;;6.03;3.78;;;;;;;-144.57;100.00;62443.72;5560062;25;20067;-64
2024/04/17 04:10:07;;;;;;;9.10;3.97;;;;;;;-144.57;100.00;62443.72;5558237;25;20220;-62
2024/04/17 04:12:33;;;;;;;5.75;3.85;;;;;;;-144.57;100.00;62443.72;5528659;25;20020;-63
2024/04/17 04:14:58;;;;;;;7.13;3.88;;;;;;;-144.57;100.00;62443.72;5559716;25;20008;-62
2024/04/17 04:17:24;;;;;;;7.35;3.50;;;;;;;-144.57;100.00;62443.72;5538345;25;19997;-62
2024/04/17 04:19:50;;;;;;;6.82;3.38;;;;;;;-144.57;100.00;62443.72;5523886;25;19998;-62
2024/04/17 04:22:16;;;;;;;5.82;3.28;;;;;;;-144.57;100.00;62443.72;5522373;26;20002;-63
2024/04/17 04:24:42;;;;;;;8.65;3.83;;;;;;;-144.57;100.00;62443.72;5523015;25;20001;-63
2024/04/17 04:27:10;;;;;;;6.07;3.85;;;;;;;-144.57;100.00;62443.72;5523572;25;20002;-63
2024/04/17 04:29:36;;;;;;;6.90;3.72;;;;;;;-144.57;100.00;62443.72;5522756;26;19993;-62
2024/04/17 04:32:02;;;;;;;7.53;3.38;;;;;;;-144.57;100.00;62443.72;5490919;26;20002;-62
2024/04/17 04:34:27;;;;;;;7.20;3.60;;;;;;;-144.57;100.00;62443.72;5523771;25;20012;-63
2024/04/17 04:36:53;;;;;;;11.25;3.97;;;;;;;-144.57;100.00;62443.72;5523085;25;20061;-62
2024/04/17 04:39:19;;;;;;;4.85;3.78;;;;;;;-144.57;100.00;62443.72;5522173;26;20345;-62
2024/04/17 04:41:45;;;;;;;7.45;3.75;;;;;;;-144.57;100.00;62443.72;5523430;25;20331;-63
2024/04/17 04:44:11;;;;;;;5.03;3.72;;;;;;;-144.57;100.00;62443.72;5523700;25;19995;-61
2024/04/17 04:46:36;;;;;;;5.80;3.55;;;;;;;-144.57;100.00;62443.72;5551589;25;20078;-63
2024/04/17 04:49:02;;;;;;;6.22;4.28;;;;;;;-144.57;100.00;62443.72;5559735;25;19996;-61
2024/04/17 04:51:28;;;;;;;7.45;4.07;;;;;;;-144.57;100.00;62443.72;5553283;25;20045;-62
2024/04/17 04:53:53;;;;;;;8.02;3.85;;;;;;;-144.57;100.00;62443.72;5561191;25;20217;-62
2024/04/17 04:56:19;;;;;;;8.40;3.88;;;;;;;-144.57;100.00;62443.72;5532714;25;20027;-63
2024/04/17 04:58:45;;;;;;;8.32;4.05;;;;;;;-144.57;100.00;62443.72;5523677;25;20062;-63
2024/04/17 05:01:11;;;;;;;6.80;3.80;;;;;;;-144.57;100.00;62443.72;5532403;25;20004;-62
2024/04/17 05:03:38;;;;;;;9.73;4.35;;;;;;;-144.57;100.00;62443.72;5560419;25;20011;-61
2024/04/17 05:06:03;;;;;;;7.43;4.03;;;;;;;-144.57;100.00;62443.72;5559896;25;20080;-62
2024/04/17 05:08:29;;;;;;;5.95;4.15;;;;;;;-144.57;100.00;62443.72;5561904;25;20012;-63
2024/04/17 05:10:56;;;;;;;7.07;4.20;;;;;;;-144.57;100.00;62443.72;5532548;25;20013;-61
2024/04/17 05:13:21;;;;;;;5.28;4.20;;;;;;;-144.57;100.00;62443.72;5492096;26;19998;-62
2024/04/17 05:15:48;;;;;;;6.20;4.30;;;;;;;-144.57;100.00;62443.72;5552782;25;20484;-62
2024/04/17 05:18:13;;;;;;;7.45;3.70;;;;;;;-144.57;100.00;62443.72;5552683;25;20021;-63
2024/04/17 05:20:39;;;;;;;5.70;4.20;;;;;;;-144.57;100.00;62443.72;5520062;25;20015;-62
2024/04/17 05:23:05;;;;;;;8.93;4.28;;;;;;;-144.57;100.00;62443.72;5562315;25;19996;-62
2024/04/17 05:25:31;;;;;;;6.53;4.00;;;;;;;-144.57;100.00;62443.72;5539365;25;20022;-62
2024/04/17 05:27:56;;;;;;;9.35;4.32;;;;;;;-144.57;100.00;62443.72;5525573;25;20070;-65
2024/04/17 05:30:22;;;;;;;8.52;4.13;;;;;;;-144.57;100.00;62443.72;5523434;25;20001;-60
2024/04/17 05:32:49;;;;;;;4.70;3.70;;;;;;;-144.57;100.00;62443.72;5523913;25;20283;-62
2024/04/17 05:35:15;;;;;;;6.88;4.00;;;;;;;-144.57;100.00;62443.72;5538632;25;20005;-62
2024/04/17 05:37:40;;;;;;;7.35;4.10;;;;;;;-144.57;100.00;62443.72;5543554;25;19997;-64
2024/04/17 05:40:07;;;;;;;4.57;3.60;;;;;;;-144.57;100.00;62443.72;5533039;25;20005;-62
2024/04/17 05:42:33;;;;;;;7.28;3.92;;;;;;;-144.57;100.00;62443.72;5523372;26;20013;-63
2024/04/17 05:44:58;;;;;;;7.55;4.20;;;;;;;-144.57;100.00;62443.72;5523838;25;20012;-62
2024/04/17 05:47:24;;;;;;;10.13;4.20;;;;;;;-144.57;100.00;62443.72;5520458;25;20017;-61
2024/04/17 05:49:52;;;;;;;6.75;4.40;;;;;;;-144.57;100.00;62443.72;5522100;25;19998;-63
2024/04/17 05:52:17;;;;;;;6.75;4.40;;;;;;;-144.57;100.00;62443.72;5558097;25;20016;-61
2024/04/17 05:54:43;;;;;;;7.50;4.50;;;;;;;-144.57;100.00;62443.72;5551361;25;20001;-62
2024/04/17 05:57:09;;;;;;;6.40;4.00;;;;;;;-144.57;100.00;62443.72;5544864;25;20000;-62
2024/04/17 05:59:35;;;;;;;7.13;4.30;;;;;;;-144.57;100.00;62443.72;5537855;25;20358;-60
2024/04/17 06:02:02;;;;;;;6.63;3.97;;;;;;;-144.57;100.00;62443.72;5493570;26;20482;-63
2024/04/17 06:04:29;;;;;;;7.28;4.35;;;;;;;-144.57;100.00;62443.72;5524761;25;20013;-62
2024/04/17 06:06:55;;;;;;;8.63;4.32;;;;;;;-144.57;100.00;62443.72;5595393;25;20004;-64
2024/04/17 06:09:21;;;;;;;6.68;4.05;;;;;;;-144.57;100.00;62443.72;5546135;25;20075;-62
2024/04/17 06:11:47;;;;;;;6.30;3.97;;;;;;;-144.57;100.00;62443.72;5525942;25;20034;-63
2024/04/17 06:14:13;;;;;;;6.25;4.28;;;;;;;-144.57;100.00;62443.72;5541106;25;19996;-62
2024/04/17 06:16:39;;;;;;;5.93;3.90;;;;;;;-144.57;100.00;62443.72;5561453;25;20015;-63
2024/04/17 06:19:04;;;;;;;9.48;3.85;;;;;;;-144.57;100.00;62443.72;5549674;25;20001;-63
2024/04/17 06:21:31;;;;;;;6.53;4.40;;;;;;;-144.57;100.00;62443.72;5525735;25;20010;-62
2024/04/17 06:23:57;;;;;;;11.45;4.20;;;;;;;-144.57;100.00;62443.72;5536540;25;20462;-64
2024/04/17 06:26:23;;;;;;;8.60;4.25;;;;;;;-144.57;100.00;62443.72;5561434;25;20077;-64
2024/04/17 06:28:48;;;;;;;7.78;4.50;;;;;;;-144.57;100.00;62443.72;5563070;25;20042;-62
2024/04/17 06:31:15;;;;;;;7.18;4.15;;;;;;;-144.57;100.00;62443.72;5560930;25;20360;-63
2024/04/17 06:33:41;;;;;;;6.18;4.20;;;;;;;-144.57;100.00;62443.72;5562367;25;20012;-63
2024/04/17 06:36:07;;;;;;;8.18;4.65;;;;;;;-144.57;100.00;62443.72;5530058;25;20418;-64
2024/04/17 06:38:34;;;;;;;8.15;4.00;;;;;;;-144.57;100.00;62443.72;5562539;25;20337;-63
2024/04/17 06:41:00;;;;;;;8.98;4.25;;;;;;;-144.57;100.00;62443.72;5561499;25;20005;-63
2024/04/17 06:43:26;;;;;;;8.25;4.35;;;;;;;-144.57;100.00;62443.72;5560847;25;19997;-62
2024/04/17 06:45:52;;;;;;;6.97;3.88;;;;;;;-144.57;100.00;62443.72;5562556;25;20016;-62
2024/04/17 06:48:18;;;;;;;7.30;4.30;;;;;;;-144.57;100.00;62443.72;5562624;25;20351;-63
2024/04/17 06:50:43;;;;;;;5.45;3.72;;;;;;;-144.57;100.00;62443.72;5523666;26;20005;-62
2024/04/17 06:53:11;;;;;;;7.57;4.22;;;;;;;-144.57;100.00;62443.72;5493123;26;20459;-63
2024/04/17 06:55:38;;;;;;;8.32;4.20;;;;;;;-144.57;100.00;62443.72;5536348;25;19998;-64
2024/04/17 06:58:06;;;;;;;7.30;4.10;;;;;;;-144.57;100.00;62443.72;5555366;25;20521;-63
2024/04/17 07:00:33;;;;;;;5.38;4.28;;;;;;;-144.57;100.00;62443.72;5526545;25;20078;-63
2024/04/17 07:02:59;;;;;;;6.00;4.22;;;;;;;-144.57;100.00;62443.72;5541422;25;20005;-64
2024/04/17 07:05:26;;;;;;;7.72;4.65;;;;;;;-144.57;100.00;62443.72;5545151;25;20466;-62
2024/04/17 07:07:52;;;;;;;4.15;3.45;;;;;;;-144.57;100.00;62443.72;5532969;25;20009;-62
2024/04/17 07:10:18;;;;;;;8.10;4.38;;;;;;;-144.57;100.00;62443.72;5544255;25;20016;-63
2024/04/17 07:12:44;;;;;;;4.68;3.60;;;;;;;-144.57;100.00;62443.72;5544729;25;20478;-64
2024/04/17 07:15:10;;;;;;;6.03;3.45;;;;;;;-144.57;100.00;62443.72;5542249;25;20001;-61
2024/04/17 07:17:37;;;;;;;5.47;3.92;;;;;;;-144.57;100.00;62443.72;5544449;25;20494;-64
2024/04/17 07:20:03;;;;;;;6.18;3.67;;;;;;;-144.57;100.00;62443.72;5539293;25;20013;-62
2024/04/17 07:22:30;;;;;;;5.80;3.63;;;;;;;-144.57;100.00;62443.72;5541316;25;20393;-63
2024/04/17 07:24:55;;;;;;;5.95;3.20;;;;;;;-144.57;100.00;62443.72;5543962;25;20020;-63
2024/04/17 07:27:22;;;;;;;5.07;3.60;;;;;;;-144.57;100.00;62443.72;5539222;25;20010;-63
2024/04/17 07:29:48;;;;;;;4.22;3.08;;;;;;;-144.57;100.00;62443.72;5543935;25;20005;-64
2024/04/17 07:32:15;;;;;;;4.75;3.58;;;;;;;-144.57;100.00;62443.72;5541822;25;20027;-62
2024/04/17 07:34:41;;;;;;;4.90;3.17;;;;;;;-144.57;100.00;62443.72;5544092;25;20016;-61
2024/04/17 07:37:07;;;;;;;6.05;3.38;;;;;;;-144.57;100.00;62443.72;5543280;25;20000;-63
2024/04/17 07:39:33;;;;;;;6.63;3.10;;;;;;;-144.57;100.00;62443.72;5541616;25;20081;-63
2024/04/17 07:41:59;;;;;;;6.45;3.72;;;;;;;-144.57;100.00;62443.72;5507939;25;20017;-63
2024/04/17 07:44:25;;;;;;;4.25;3.55;;;;;;;-144.57;100.00;62443.72;5543741;25;20373;-62
2024/04/17 07:46:50;;;;;;;5.10;3.58;;;;;;;-144.57;100.00;62443.72;5540879;25;20033;-63
2024/04/17 07:49:16;;;;;;;5.03;3.58;;;;;;;-144.57;100.00;62443.72;5545086;25;20021;-63
2024/04/17 07:51:42;;;;;;;8.82;3.85;;;;;;;-144.57;100.00;62443.72;5541777;25;20045;-62
2024/04/17 07:54:07;;;;;;;5.63;3.88;;;;;;;-144.57;100.00;62443.72;5537511;25;20458;-62
2024/04/17 07:56:33;;;;;;;4.78;3.35;;;;;;;-144.57;100.00;62443.72;5552121;25;20023;-63
2024/04/17 07:58:59;;;;;;;5.05;3.40;;;;;;;-144.57;100.00;62443.72;5550234;25;20073;-63
2024/04/17 08:01:25;;;;;;;4.05;3.22;;;;;;;-144.57;100.00;62443.72;5524057;25;20002;-63
2024/04/17 08:03:51;;;;;;;4.15;3.22;;;;;;;-144.57;100.00;62443.72;5522122;25;20006;-63
2024/04/17 08:06:20;;;;;;;3.88;3.30;;;;;;;-144.57;100.00;62443.72;5492114;26;20496;-65
2024/04/17 08:08:47;;;;;;;5.72;3.42;;;;;;;-144.57;100.00;62443.72;5524137;25;20699;-62
2024/04/17 08:11:13;;;;;;;5.95;3.53;;;;;;;-144.57;100.00;62443.72;5491856;26;20078;-62
2024/04/17 08:13:39;;;;;;;4.47;3.33;;;;;;;-144.57;100.00;62443.72;5524072;25;20045;-62
2024/04/17 08:16:07;;;;;;;6.03;3.47;;;;;;;-144.57;100.00;62443.72;5522664;26;20034;-63
2024/04/17 08:18:33;;;;;;;5.63;3.90;;;;;;;-144.57;100.00;62443.72;5523057;25;19998;-63
2024/04/17 08:20:59;;;;;;;5.85;3.92;;;;;;;-144.57;100.00;62443.72;5522364;26;20001;-62
2024/04/17 08:23:25;;;;;;;5.68;3.20;;;;;;;-144.57;100.00;62443.72;5521869;25;20347;-62
2024/04/17 08:25:51;;;;;;;6.95;3.60;;;;;;;-144.57;100.00;62443.72;5521795;26;20362;-61
2024/04/17 08:28:22;;;;;;;5.72;3.38;;;;;;;-144.57;100.00;62443.72;5528956;25;20016;-64
2024/04/17 08:30:47;;;;;;;5.53;2.97;;;;;;;-144.57;100.00;62443.72;5539292;25;20001;-61
2024/04/17 08:33:13;;;;;;;4.75;3.20;;;;;;;-144.57;100.00;62443.72;5540625;25;20001;-64
2024/04/17 08:35:39;;;;;;;6.13;3.20;;;;;;;-144.57;100.00;62443.72;5552764;25;20342;-62
2024/04/17 08:38:05;;;;;;;6.45;3.28;;;;;;;-144.57;100.00;62443.72;5561012;25;20029;-62
2024/04/17 08:40:31;;;;;;;6.43;3.17;;;;;;;-144.57;100.00;62443.72;5523675;25;20011;-61
2024/04/17 08:43:03;;;;;;;5.15;3.45;;;;;;;-144.57;100.00;62443.72;5531635;25;20012;-62
2024/04/17 08:45:35;;;;;;;6.53;3.33;;;;;;;-144.57;100.00;62443.72;5531174;25;20001;-61
2024/04/17 08:48:02;;;;;;;4.50;3.20;;;;;;;-144.57;100.00;62443.72;5531458;25;19997;-61
2024/04/17 08:50:31;;;;;;;4.38;3.03;;;;;;;-144.57;100.00;62443.72;5563196;25;20040;-62
2024/04/17 08:52:59;;;;;;;5.15;3.05;;;;;;;-144.57;100.00;62443.72;5567658;25;20016;-68
2024/04/17 08:55:30;;;;;;;4.78;3.47;;;;;;;-144.57;100.00;62443.72;5472081;26;20005;-69
2024/04/17 08:57:57;;;;;;;5.47;3.05;;;;;;;-144.57;100.00;62443.72;5469086;26;20001;-67
2024/04/17 09:00:25;;;;;;;3.58;2.60;;;;;;;-144.57;100.00;62443.72;5528259;25;20356;-67
2024/04/17 09:02:56;;;;;;;5.55;2.80;;;;;;;-144.57;100.00;62443.72;5531094;25;20065;-69
2024/04/17 09:05:24;;;;;;;4.63;3.10;;;;;;;-144.57;100.00;62443.72;5498399;26;20502;-68
2024/04/17 09:07:51;;;;;;;5.60;3.45;;;;;;;-144.57;100.00;62443.72;5529357;26;20002;-67
2024/04/17 09:10:18;;;;;;;3.50;3.00;;;;;;;-144.57;100.00;62443.72;5559711;25;20000;-67
2024/04/17 09:12:45;;;;;;;4.07;2.80;;;;;;;-144.57;100.00;62443.72;5566676;25;20000;-70
2024/04/17 09:15:15;;;;;;;5.35;2.75;;;;;;;-144.57;100.00;62443.72;5567928;25;20001;-70
2024/04/17 09:17:41;;;;;;;4.22;2.63;;;;;;;-144.57;100.00;62443.72;5551716;25;20010;-64
2024/04/17 09:20:08;;;;;;;3.83;2.50;;;;;;;-144.57;100.00;62443.72;5549063;25;20463;-62
2024/04/17 09:22:34;;;;;;;5.97;2.53;;;;;;;-144.57;100.00;62443.72;5568104;25;20001;-63
2024/04/17 09:25:10;;;;;;;4.90;2.20;;;;;;;-144.57;100.00;62443.72;5567697;25;20008;-62
2024/04/17 09:27:37;;;;;;;3.80;2.47;;;;;;;-144.57;100.00;62443.72;5566178;25;20442;-62
2024/04/17 09:30:05;;;;;;;2.80;2.30;;;;;;;-144.57;100.00;62443.72;5538298;25;20098;-62
2024/04/17 09:32:31;;;;;;;4.15;2.35;;;;;;;-144.57;100.00;62443.72;5529722;25;20419;-61
2024/04/17 09:34:57;;;;;;;3.67;1.90;;;;;;;-144.57;100.00;62443.72;5554759;25;20346;-62
2024/04/17 09:37:26;;;;;;;3.42;2.40;;;;;;;-144.57;100.00;62443.72;5563580;25;20004;-61
2024/04/17 09:40:03;;;;;;;3.85;2.22;;;;;;;-144.57;100.00;62443.72;5497353;26;20072;-62
2024/04/17 09:42:29;;;;;;;2.17;1.95;;;;;;;-144.57;100.00;62443.72;5538765;25;19997;-62
2024/04/17 09:44:59;;;;;;;2.22;2.00;;;;;;;-144.57;100.00;62443.72;5567713;25;20318;-61
2024/04/17 09:47:30;;;;;;;3.28;2.13;;;;;;;-144.57;100.00;62443.72;5559728;25;20497;-62
2024/04/17 09:49:59;;;;;;;4.25;2.08;;;;;;;-144.57;100.00;62443.72;5535541;25;20540;-62
2024/04/17 09:52:29;;;;;;;5.80;2.30;;;;;;;-144.57;100.00;62443.72;5542106;25;20789;-63
2024/04/17 09:55:00;;;;;;;2.70;2.00;;;;;;;-144.57;100.00;62443.72;5542894;25;19996;-62
2024/04/17 09:57:27;;;;;;;4.55;2.08;;;;;;;-144.57;100.00;62443.72;5535819;25;20370;-63
2024/04/17 09:59:54;;;;;;;2.28;1.80;;;;;;;-144.57;100.00;62443.72;5544662;25;20019;-61
2024/04/17 10:02:22;;;;;;;3.30;2.00;;;;;;;-144.57;100.00;62443.72;5544283;25;20349;-62
2024/04/17 10:04:50;;;;;;;3.35;2.10;;;;;;;-144.57;100.00;62443.72;5544127;25;19997;-62
2024/04/17 10:07:16;;;;;;;2.60;2.08;;;;;;;-144.57;100.00;62443.72;5529723;25;19998;-64
2024/04/17 10:09:43;;;;;;;3.70;2.50;;;;;;;-144.57;100.00;62443.72;5494011;26;20013;-62
2024/04/17 10:12:12;;;;;;;3.90;2.13;;;;;;;-144.57;100.00;62443.72;5526214;25;20001;-63
2024/04/17 10:14:38;;;;;;;4.53;2.15;;;;;;;-144.57;100.00;62443.72;5524514;26;20013;-62
2024/04/17 10:17:06;;;;;;;3.30;2.05;;;;;;;-144.57;100.00;62443.72;5523916;25;20081;-62
2024/04/17 10:19:33;;;;;;;3.13;2.03;;;;;;;-144.57;100.00;62443.72;5523806;26;20013;-63
2024/04/17 10:22:06;;;;;;;3.70;2.15;;;;;;;-144.57;100.00;62443.72;5526093;25;20046;-63
2024/04/17 10:24:32;;;;;;;4.72;2.35;;;;;;;-144.57;100.00;62443.72;5523758;26;20013;-61
2024/04/17 10:27:04;;;;;;;2.83;2.05;;;;;;;-144.57;100.00;62443.72;5554755;25;19997;-61
2024/04/17 10:29:30;;;;;;;3.10;2.00;;;;;;;-144.57;100.00;62443.72;5561386;25;20012;-63
2024/04/17 10:32:02;;;;;;;3.80;1.90;;;;;;;-144.57;100.00;62443.72;5523493;26;20009;-61
2024/04/17 10:35:03;;;;;;;3.25;2.10;;;;;;;-144.57;100.00;62443.72;5525051;25;20020;-62
2024/04/17 10:37:30;;;;;;;2.88;2.10;;;;;;;-144.57;100.00;62443.72;5482925;26;20069;-62
2024/04/17 10:39:56;;;;;;;3.20;2.05;;;;;;;-144.57;100.00;62443.72;5523830;26;19998;-61
2024/04/17 10:42:22;;;;;;;4.22;1.92;;;;;;;-144.57;100.00;62443.72;5524946;25;20030;-63
2024/04/17 10:44:50;;;;;;;3.20;1.90;;;;;;;-144.57;100.00;62443.72;5493100;26;20466;-63
2024/04/17 10:47:20;;;;;;;5.03;1.83;;;;;;;-144.57;100.00;62443.72;5524927;25;19997;-62
2024/04/17 10:50:00;;;;;;;2.25;1.90;;;;;;;-144.57;100.00;62443.72;5527412;25;20508;-62
2024/04/17 10:52:29;;;;;;;3.50;1.50;;;;;;;-144.57;100.00;62443.72;5554261;25;20116;-59
2024/04/17 10:54:56;;;;;;;3.80;1.77;;;;;;;-144.57;100.00;62443.72;5560937;25;20498;-63
2024/04/17 10:57:22;;;;;;;3.00;1.83;;;;;;;-144.57;100.00;62443.72;5462122;26;19999;-60
2024/04/17 10:59:49;;;;;;;3.03;1.75;;;;;;;-144.57;100.00;62443.72;5525429;25;20020;-63
2024/04/17 11:02:16;;;;;;;3.58;1.92;;;;;;;-144.57;100.00;62443.72;5522572;25;20085;-62
2024/04/17 11:04:43;;;;;;;2.03;1.50;;;;;;;-144.57;100.00;62443.72;5521478;26;19997;-63
2024/04/17 11:07:09;;;;;;;2.90;1.45;;;;;;;-144.57;100.00;62443.72;5554561;25;20048;-61